Pawhuska, OK (74056)

9:01 AM CDT on July 06, 2015 (GMT -0500)
Downtown | | Change Station
CLOSE
Current Station
Personal Weather Station
Location: Pawhuska, OK
Elevation: 827 ft
Nearby Weather Stations
Active Advisory: Flash Flood Watch

Elev 827 ft 36.67 °N, 96.34 °W | Updated 5 seconds ago

Clear
Clear
80.8 °F
Feels Like 86 °F
N
5.6
Wind Variable Wind from SE
Gusts 13.2 mph

Today
High -- | Low -- °F
--% Chance of Precip.
Yesterday
High -- | Low -- °F
Precip. -- in
6:12 AM 8:47 PM
Waning Gibbous, 75% visible
Pressure 29.92 in
Visibility 10.0 miles
Clouds Few 2300 ft
Heat Index 86 °F
Dew Point 75 °F
Humidity 82%
Rainfall 0.00 in
Snow Depth Not available.
UV 3 out of 12
Pollen 3.00 out of 12
Air Quality Not available.
Flu Activity Not available.
METAR KBVO 061353Z 17008KT 10SM FEW023 26/23 A2995 RMK AO2 SLP130 T02610233

More Conditions Fewer Conditions

Pressure 29.92 in
Visibility 10.0 miles
Clouds Few 2300 ft
Heat Index 86 °F
Dew Point 75 °F
Humidity 82%
Rainfall 0.00 in
Snow Depth Not available.
UV 3 out of 12
Pollen 3.00 out of 12
Air Quality Not available.
Flu Activity Not available.
METAR KBVO 061353Z 17008KT 10SM FEW023 26/23 A2995 RMK AO2 SLP130 T02610233

More Conditions Fewer Conditions

10-Day Weather Forecast

×

Almanac

Astronomy

Jul. 06, 2015 Rise Set
Actual Time
Civil Twilight
Nautical Twilight
Astronomical Twilight
Moon
Length of Visible Light
Length of Day
Tomorrow will be .
, % of the Moon is Illuminated

Today's Extremes

State Highs State Lows

Community

WunderPhotos

Upload Photos

1,835,558 photos uploaded!

WunderBlogs® & News

Nearby

Air Quality

  Air Quality AQ Index Pollutant
Not available.

Snow Depth

Station Depth Elevation

Earthquake Activity

City Distance Mag. Time & Date
Minimum magnitude displayed is 2.5.

Coastal Water Temperatures

Place Temperature

Stations

Nearby Weather Stations

Station Location Temp. Windchill Dew Point Humidity Wind Precip. Elev Updated Type
                   
Flash Flood Watch
Statement as of 2:12 AM CDT on July 06, 2015

... Flash Flood Watch in effect from this evening through
Wednesday evening...

The National Weather Service in Tulsa has issued a

* Flash Flood Watch for portions of east central Oklahoma and
northeast Oklahoma... including the following areas... in east
central Oklahoma... Okfuskee. In northeast Oklahoma... Craig...
creek... Delaware... Mayes... Nowata... Okmulgee... Osage...
Ottawa... Pawnee... Rogers... Tulsa... Wagoner and Washington OK.

* From this evening through Wednesday evening

* a swath of 3 to 5 inches of rainfall is forecast along and
northwest of a Okemah to Miami line... beginning Monday night and
continuing through Wednesday. Some isolated locations could
receive as much as 10 inches of rainfall before all is said and
done Wednesday night. Dangerous flash flooding will likely be
the result.

Precautionary/preparedness actions...

A Flash Flood Watch means rapidly rising water or flooding is
possible within the watch area.



Lacy